Time,TemperatureF,DewpointF,PressureIn,WindDirection,WindDirectionDegrees,WindSpeedMPH,WindSpeedGustMPH,Humidity,HourlyPrecipIn,Conditions,Clouds,dailyrainin,SoftwareType,DateUTC
2013-03-28 00:00:00,29.3,3.1,30.14,NW,315,0.0,0.0,32,0.00,,CLR,0.00,VWS V14.01,2013-03-28 05:00:00,
2013-03-28 00:05:00,29.3,3.1,30.14,NW,316,0.0,0.0,32,0.00,,CLR,0.00,VWS V14.01,2013-03-28 05:05:00,
2013-03-28 00:11:00,29.1,3.0,30.14,NW,316,0.0,0.0,32,0.00,,CLR,0.00,VWS V14.01,2013-03-28 05:11:00,
2013-03-28 00:16:00,28.9,2.8,30.14,NW,315,0.0,0.0,32,0.00,,CLR,0.00,VWS V14.01,2013-03-28 05:16:00,
2013-03-28 00:21:00,28.8,2.6,30.14,NW,316,0.0,0.0,32,0.00,,CLR,0.00,VWS V14.01,2013-03-28 05:21:00,
2013-03-28 00:26:00,28.6,2.5,30.14,NW,315,0.0,0.0,32,0.00,,CLR,0.00,VWS V14.01,2013-03-28 05:26:00,
2013-03-28 00:32:00,28.8,2.6,30.14,NW,315,0.0,0.0,32,0.00,,CLR,0.00,VWS V14.01,2013-03-28 05:32:00,
2013-03-28 00:37:00,28.6,2.5,30.14,NW,315,0.0,0.0,32,0.00,,CLR,0.00,VWS V14.01,2013-03-28 05:37:00,
2013-03-28 00:43:00,28.6,2.5,30.14,NW,316,0.0,0.0,32,0.00,,CLR,0.00,VWS V14.01,2013-03-28 05:43:00,
2013-03-28 00:49:00,28.4,3.0,30.14,NW,315,0.0,0.0,33,0.00,,CLR,0.00,VWS V14.01,2013-03-28 05:49:00,
2013-03-28 00:54:00,28.4,3.0,30.14,NW,316,0.0,0.0,33,0.00,,CLR,0.00,VWS V14.01,2013-03-28 05:54:00,
2013-03-28 01:00:00,28.4,3.0,30.14,NW,311,0.0,0.0,33,0.00,,CLR,0.00,VWS V14.01,2013-03-28 06:00:00,
2013-03-28 01:05:00,28.6,3.1,30.14,NW,311,0.0,0.0,33,0.00,,CLR,0.00,VWS V14.01,2013-03-28 06:05:00,
2013-03-28 01:11:00,28.6,3.1,30.14,NW,311,0.0,0.0,33,0.00,,CLR,0.00,VWS V14.01,2013-03-28 06:11:00,
2013-03-28 01:17:00,28.6,3.1,30.17,NW,311,0.0,0.0,33,0.00,,CLR,0.00,VWS V14.01,2013-03-28 06:17:00,
2013-03-28 01:22:00,28.4,3.0,30.17,NW,305,0.0,0.0,33,0.00,,CLR,0.00,VWS V14.01,2013-03-28 06:22:00,
2013-03-28 01:28:00,28.6,3.1,30.17,NW,305,0.0,0.0,33,0.00,,CLR,0.00,VWS V14.01,2013-03-28 06:28:00,
2013-03-28 01:33:00,28.6,3.1,30.17,NW,305,0.0,0.0,33,0.00,,CLR,0.00,VWS V14.01,2013-03-28 06:33:00,
2013-03-28 01:39:00,28.6,3.1,30.17,NW,305,0.0,0.0,33,0.00,,CLR,0.00,VWS V14.01,2013-03-28 06:39:00,
2013-03-28 01:44:00,28.4,3.0,30.17,NW,305,0.0,0.0,33,0.00,,CLR,0.00,VWS V14.01,2013-03-28 06:44:00,
2013-03-28 01:50:00,28.2,2.8,30.17,NW,305,0.0,0.0,33,0.00,,CLR,0.00,VWS V14.01,2013-03-28 06:50:00,
2013-03-28 01:56:00,28.0,2.7,30.17,NW,305,0.0,0.0,33,0.00,,CLR,0.00,VWS V14.01,2013-03-28 06:56:00,
2013-03-28 02:02:00,27.9,2.5,30.17,NW,305,0.0,0.0,33,0.00,,CLR,0.00,VWS V14.01,2013-03-28 07:02:00,
2013-03-28 02:08:00,27.9,3.2,30.17,NW,305,0.0,0.0,34,0.00,,CLR,0.00,VWS V14.01,2013-03-28 07:08:00,
2013-03-28 02:14:00,27.9,3.2,30.17,NW,305,2.7,3.1,34,0.00,,CLR,0.00,VWS V14.01,2013-03-28 07:14:00,
2013-03-28 02:20:00,27.9,3.2,30.17,NW,304,2.7,3.1,34,0.00,,CLR,0.00,VWS V14.01,2013-03-28 07:20:00,
2013-03-28 02:25:00,27.7,3.0,30.17,NW,304,2.7,3.1,34,0.00,,CLR,0.00,VWS V14.01,2013-03-28 07:25:00,
2013-03-28 02:30:00,27.5,2.8,30.17,NW,304,0.0,2.2,34,0.00,,CLR,0.00,VWS V14.01,2013-03-28 07:30:00,
2013-03-28 02:35:00,27.1,2.5,30.17,NW,304,0.0,0.0,34,0.00,,CLR,0.00,VWS V14.01,2013-03-28 07:35:00,
2013-03-28 02:41:00,26.8,2.2,30.17,NW,304,0.0,0.0,34,0.00,,CLR,0.00,VWS V14.01,2013-03-28 07:41:00,
2013-03-28 02:46:00,26.6,2.0,30.17,NW,304,0.0,0.0,34,0.00,,CLR,0.00,VWS V14.01,2013-03-28 07:46:00,
2013-03-28 02:52:00,26.2,1.7,30.17,NW,307,0.0,0.0,34,0.00,,CLR,0.00,VWS V14.01,2013-03-28 07:52:00,
2013-03-28 02:57:00,26.6,2.7,30.17,NW,319,3.1,3.6,35,0.00,,CLR,0.00,VWS V14.01,2013-03-28 07:57:00,
2013-03-28 03:03:00,27.0,2.3,30.17,NW,313,3.1,4.9,34,0.00,,CLR,0.00,VWS V14.01,2013-03-28 08:03:00,
2013-03-28 03:09:00,27.0,2.3,30.17,NW,308,4.0,4.0,34,0.00,,CLR,0.00,VWS V14.01,2013-03-28 08:09:00,
2013-03-28 03:14:00,27.0,2.3,30.14,NW,312,4.9,4.9,34,0.00,,CLR,0.00,VWS V14.01,2013-03-28 08:14:00,
2013-03-28 03:20:00,27.1,2.5,30.14,NW,311,4.0,5.4,34,0.00,,CLR,0.00,VWS V14.01,2013-03-28 08:20:00,
2013-03-28 03:25:00,27.1,2.5,30.14,NW,317,4.9,4.9,34,0.00,,CLR,0.00,VWS V14.01,2013-03-28 08:25:00,
2013-03-28 03:30:00,27.1,2.5,30.11,NW,313,4.0,4.0,34,0.00,,CLR,0.00,VWS V14.01,2013-03-28 08:30:00,
2013-03-28 03:35:00,27.0,2.3,30.11,NW,312,4.0,4.0,34,0.00,,CLR,0.00,VWS V14.01,2013-03-28 08:35:00,
2013-03-28 03:41:00,27.0,2.3,30.11,NW,316,3.6,5.4,34,0.00,,CLR,0.00,VWS V14.01,2013-03-28 08:41:00,
2013-03-28 03:47:00,27.0,2.3,30.17,NW,312,3.1,4.0,34,0.00,,CLR,0.00,VWS V14.01,2013-03-28 08:47:00,
2013-03-28 03:52:00,27.0,2.3,30.17,NW,326,4.9,4.9,34,0.00,,CLR,0.00,VWS V14.01,2013-03-28 08:52:00,
2013-03-28 03:58:00,26.8,2.2,30.17,NW,312,3.1,3.6,34,0.00,,CLR,0.00,VWS V14.01,2013-03-28 08:58:00,
2013-03-28 04:03:00,26.6,2.0,30.17,NW,315,3.6,3.6,34,0.00,,CLR,0.00,VWS V14.01,2013-03-28 09:03:00,
2013-03-28 04:08:00,26.4,1.9,30.17,NW,312,4.0,4.0,34,0.00,,CLR,0.00,VWS V14.01,2013-03-28 09:08:00,
2013-03-28 04:13:00,26.2,1.7,30.17,NW,310,3.6,4.0,34,0.00,,CLR,0.00,VWS V14.01,2013-03-28 09:13:00,
2013-03-28 04:18:00,26.1,1.5,30.17,NW,311,3.1,4.0,34,0.00,,CLR,0.00,VWS V14.01,2013-03-28 09:18:00,
2013-03-28 04:24:00,25.9,1.4,30.17,NW,310,3.1,4.0,34,0.00,,CLR,0.00,VWS V14.01,2013-03-28 09:24:00,
2013-03-28 04:29:00,25.7,1.9,30.17,NW,319,3.6,3.6,35,0.00,,CLR,0.00,VWS V14.01,2013-03-28 09:29:00,
2013-03-28 04:34:00,25.9,2.0,30.17,NW,309,4.0,4.9,35,0.00,,CLR,0.00,VWS V14.01,2013-03-28 09:34:00,
2013-03-28 04:39:00,25.9,2.0,30.17,NW,316,2.7,4.0,35,0.00,,CLR,0.00,VWS V14.01,2013-03-28 09:39:00,
2013-03-28 04:45:00,25.9,2.0,30.14,NW,320,3.6,4.9,35,0.00,,CLR,0.00,VWS V14.01,2013-03-28 09:45:00,
2013-03-28 04:51:00,25.9,2.0,30.14,NW,317,4.0,4.0,35,0.00,,CLR,0.00,VWS V14.01,2013-03-28 09:51:00,
2013-03-28 04:57:00,25.9,2.0,30.14,NW,315,4.0,5.4,35,0.00,,CLR,0.00,VWS V14.01,2013-03-28 09:57:00,
2013-03-28 05:03:00,25.5,1.7,30.17,NW,316,4.0,4.9,35,0.00,,CLR,0.00,VWS V14.01,2013-03-28 10:03:00,
2013-03-28 05:09:00,25.5,2.3,30.17,NW,312,3.6,4.0,36,0.00,,CLR,0.00,VWS V14.01,2013-03-28 10:09:00,
2013-03-28 05:14:00,25.3,2.1,30.17,NW,314,4.9,4.9,36,0.00,,CLR,0.00,VWS V14.01,2013-03-28 10:14:00,
2013-03-28 05:20:00,25.2,2.0,30.17,NW,313,4.0,4.9,36,0.00,,CLR,0.00,VWS V14.01,2013-03-28 10:20:00,
2013-03-28 05:25:00,25.2,2.0,30.17,NW,316,4.0,4.0,36,0.00,,CLR,0.00,VWS V14.01,2013-03-28 10:25:00,
2013-03-28 05:30:00,25.3,2.1,30.17,NNW,327,4.0,5.4,36,0.00,,CLR,0.00,VWS V14.01,2013-03-28 10:30:00,
2013-03-28 05:36:00,25.3,2.1,30.17,NW,313,4.9,5.8,36,0.00,,CLR,0.00,VWS V14.01,2013-03-28 10:36:00,
2013-03-28 05:41:00,25.3,2.1,30.17,NNW,327,5.4,5.8,36,0.00,,CLR,0.00,VWS V14.01,2013-03-28 10:41:00,
2013-03-28 05:47:00,25.3,2.1,30.17,NW,316,3.1,4.5,36,0.00,,CLR,0.00,VWS V14.01,2013-03-28 10:47:00,
2013-03-28 05:52:00,25.3,2.1,30.17,NW,319,5.4,5.4,36,0.00,,CLR,0.00,VWS V14.01,2013-03-28 10:52:00,
2013-03-28 05:58:00,25.2,2.0,30.17,NW,319,3.6,5.4,36,0.00,,CLR,0.00,VWS V14.01,2013-03-28 10:58:00,
2013-03-28 06:04:00,25.0,1.8,30.17,NW,314,4.0,5.4,36,0.00,,CLR,0.00,VWS V14.01,2013-03-28 11:04:00,
2013-03-28 06:09:00,25.0,1.8,30.17,NW,319,4.9,5.4,36,0.00,,CLR,0.00,VWS V14.01,2013-03-28 11:09:00,
2013-03-28 06:15:00,25.0,1.8,30.17,NW,316,4.0,5.4,36,0.00,,CLR,0.00,VWS V14.01,2013-03-28 11:15:00,
2013-03-28 06:20:00,25.2,2.0,30.17,NW,319,5.4,5.4,36,0.00,,CLR,0.00,VWS V14.01,2013-03-28 11:20:00,
2013-03-28 06:27:00,25.0,1.8,30.17,NW,322,3.6,4.0,36,0.00,,CLR,0.00,VWS V14.01,2013-03-28 11:27:00,
2013-03-28 06:32:00,25.0,1.8,30.17,NNW,327,3.6,4.0,36,0.00,,CLR,0.00,VWS V14.01,2013-03-28 11:32:00,
2013-03-28 06:38:00,25.0,1.8,30.17,NNW,327,3.1,3.6,36,0.00,,CLR,0.00,VWS V14.01,2013-03-28 11:38:00,
2013-03-28 06:43:00,24.8,2.2,30.17,NW,326,2.7,3.1,37,0.00,,CLR,0.00,VWS V14.01,2013-03-28 11:43:00,
2013-03-28 06:48:00,24.3,1.2,30.17,NW,326,0.0,0.0,36,0.00,,CLR,0.00,VWS V14.01,2013-03-28 11:48:00,
2013-03-28 06:54:00,23.9,0.8,30.17,NW,326,0.0,0.0,36,0.00,,CLR,0.00,VWS V14.01,2013-03-28 11:54:00,
2013-03-28 06:59:00,23.7,0.7,30.17,NW,326,0.0,0.0,36,0.00,,CLR,0.00,VWS V14.01,2013-03-28 11:59:00,
2013-03-28 07:05:00,23.0,0.6,30.17,NW,326,0.0,0.0,37,0.00,,CLR,0.00,VWS V14.01,2013-03-28 12:05:00,
2013-03-28 07:10:00,22.8,0.5,30.17,NW,322,0.0,0.0,37,0.00,,CLR,0.00,VWS V14.01,2013-03-28 12:10:00,
2013-03-28 07:16:00,23.5,1.1,30.17,NW,320,0.0,0.0,37,0.00,,CLR,0.00,VWS V14.01,2013-03-28 12:16:00,
2013-03-28 07:22:00,24.4,2.5,30.17,NW,326,3.6,3.6,38,0.00,,CLR,0.00,VWS V14.01,2013-03-28 12:22:00,
2013-03-28 07:28:00,25.0,3.0,30.17,NNW,328,3.1,4.0,38,0.00,,CLR,0.00,VWS V14.01,2013-03-28 12:28:00,
2013-03-28 07:33:00,25.3,3.3,30.17,NW,319,2.7,4.0,38,0.00,,CLR,0.00,VWS V14.01,2013-03-28 12:33:00,
2013-03-28 07:39:00,25.5,2.9,30.17,NNW,329,0.0,0.0,37,0.00,,CLR,0.00,VWS V14.01,2013-03-28 12:39:00,
2013-03-28 07:44:00,25.9,3.2,30.17,NW,322,3.6,3.6,37,0.00,,CLR,0.00,VWS V14.01,2013-03-28 12:44:00,
2013-03-28 07:50:00,26.1,3.4,30.17,NW,322,2.7,3.1,37,0.00,,CLR,0.00,VWS V14.01,2013-03-28 12:50:00,
2013-03-28 07:56:00,26.1,2.8,30.17,NW,322,3.1,3.1,36,0.00,,CLR,0.00,VWS V14.01,2013-03-28 12:56:00,
2013-03-28 08:02:00,26.2,2.9,30.17,NNW,327,3.1,3.1,36,0.00,,CLR,0.00,VWS V14.01,2013-03-28 13:02:00,
2013-03-28 08:10:00,26.8,3.4,30.17,NNW,343,2.7,2.7,36,0.00,,CLR,0.00,VWS V14.01,2013-03-28 13:10:00,
2013-03-28 08:16:00,27.1,3.1,30.20,North,353,4.9,4.9,35,0.00,,CLR,0.00,VWS V14.01,2013-03-28 13:16:00,
2013-03-28 08:21:00,27.5,3.5,30.20,North,357,3.6,5.4,35,0.00,,CLR,0.00,VWS V14.01,2013-03-28 13:21:00,
2013-03-28 08:27:00,27.9,3.8,30.20,NNW,344,4.0,5.4,35,0.00,,CLR,0.00,VWS V14.01,2013-03-28 13:27:00,
2013-03-28 08:32:00,28.2,4.1,30.20,NNW,340,3.6,4.0,35,0.00,,CLR,0.00,VWS V14.01,2013-03-28 13:32:00,
2013-03-28 08:38:00,28.6,3.8,30.20,North,357,5.4,6.7,34,0.00,,CLR,0.00,VWS V14.01,2013-03-28 13:38:00,
2013-03-28 08:44:00,28.8,3.9,30.20,NNW,330,5.4,6.3,34,0.00,,CLR,0.00,VWS V14.01,2013-03-28 13:44:00,
2013-03-28 08:49:00,29.1,3.6,30.20,North,2,2.2,3.6,33,0.00,,CLR,0.00,VWS V14.01,2013-03-28 13:49:00,
2013-03-28 08:55:00,29.5,3.9,30.20,NNE,17,5.4,5.4,33,0.00,,CLR,0.00,VWS V14.01,2013-03-28 13:55:00,
2013-03-28 09:00:00,29.7,4.1,30.17,North,9,5.4,5.4,33,0.00,,CLR,0.00,VWS V14.01,2013-03-28 14:00:00,
2013-03-28 09:06:00,30.0,4.4,30.17,North,6,5.4,6.3,33,0.00,,CLR,0.00,VWS V14.01,2013-03-28 14:06:00,
2013-03-28 09:12:00,30.2,4.6,30.17,North,9,4.0,5.4,33,0.00,,CLR,0.00,VWS V14.01,2013-03-28 14:12:00,
2013-03-28 09:17:00,30.6,4.2,30.20,NNE,15,3.6,4.0,32,0.00,,CLR,0.00,VWS V14.01,2013-03-28 14:17:00,
2013-03-28 09:23:00,30.9,4.5,30.20,North,357,3.6,3.6,32,0.00,,CLR,0.00,VWS V14.01,2013-03-28 14:23:00,
2013-03-28 09:28:00,31.1,4.7,30.20,NNW,330,3.6,4.0,32,0.00,,CLR,0.00,VWS V14.01,2013-03-28 14:28:00,
2013-03-28 09:34:00,31.5,5.0,30.20,NNW,345,3.1,3.1,32,0.00,,CLR,0.00,VWS V14.01,2013-03-28 14:34:00,
2013-03-28 09:40:00,32.0,5.5,30.20,NNW,335,2.7,3.6,32,0.00,,CLR,0.00,VWS V14.01,2013-03-28 14:40:00,
2013-03-28 09:46:00,32.4,5.8,30.20,NW,325,3.6,4.9,32,0.00,,CLR,0.00,VWS V14.01,2013-03-28 14:46:00,
2013-03-28 09:52:00,32.5,6.0,30.20,NW,326,4.0,4.0,32,0.00,,CLR,0.00,VWS V14.01,2013-03-28 14:52:00,
2013-03-28 09:58:00,32.9,5.6,30.20,NNW,327,4.9,4.9,31,0.00,,CLR,0.00,VWS V14.01,2013-03-28 14:58:00,
2013-03-28 10:03:00,33.3,5.9,30.20,North,353,2.2,3.6,31,0.00,,CLR,0.00,VWS V14.01,2013-03-28 15:03:00,
2013-03-28 10:08:00,33.6,6.2,30.20,NW,321,2.2,4.0,31,0.00,,CLR,0.00,VWS V14.01,2013-03-28 15:08:00,
2013-03-28 10:14:00,34.0,6.5,30.20,NNW,345,3.6,3.6,31,0.00,,CLR,0.00,VWS V14.01,2013-03-28 15:14:00,
2013-03-28 10:20:00,34.3,6.9,30.20,North,357,0.0,3.6,31,0.00,,CLR,0.00,VWS V14.01,2013-03-28 15:20:00,
2013-03-28 10:25:00,34.5,7.0,30.20,North,353,4.0,4.0,31,0.00,,CLR,0.00,VWS V14.01,2013-03-28 15:25:00,
2013-03-28 10:30:00,34.9,7.3,30.20,NNW,327,2.2,3.1,31,0.00,,CLR,0.00,VWS V14.01,2013-03-28 15:30:00,
2013-03-28 10:35:00,34.9,7.3,30.20,WNW,303,2.7,2.7,31,0.00,,CLR,0.00,VWS V14.01,2013-03-28 15:35:00,
2013-03-28 10:41:00,35.1,7.5,30.20,West,280,0.0,3.6,31,0.00,,CLR,0.00,VWS V14.01,2013-03-28 15:41:00,
2013-03-28 10:47:00,35.2,7.7,30.20,WNW,294,0.0,0.0,31,0.00,,CLR,0.00,VWS V14.01,2013-03-28 15:47:00,
2013-03-28 10:52:00,35.1,7.5,30.20,WNW,298,0.0,0.0,31,0.00,,CLR,0.00,VWS V14.01,2013-03-28 15:52:00,
2013-03-28 10:57:00,35.2,7.7,30.20,WNW,294,0.0,0.0,31,0.00,,CLR,0.00,VWS V14.01,2013-03-28 15:57:00,
2013-03-28 11:02:00,35.2,7.7,30.20,WNW,297,3.1,3.1,31,0.00,,CLR,0.00,VWS V14.01,2013-03-28 16:02:00,
2013-03-28 11:08:00,35.4,7.8,30.20,WNW,286,0.0,0.0,31,0.00,,CLR,0.00,VWS V14.01,2013-03-28 16:08:00,
2013-03-28 11:13:00,35.4,7.8,30.20,WNW,286,0.0,0.0,31,0.00,,CLR,0.00,VWS V14.01,2013-03-28 16:13:00,
2013-03-28 11:18:00,35.4,7.8,30.20,NW,322,2.7,3.6,31,0.00,,CLR,0.00,VWS V14.01,2013-03-28 16:18:00,
2013-03-28 11:24:00,35.6,7.2,30.20,NW,308,2.7,3.6,30,0.00,,CLR,0.00,VWS V14.01,2013-03-28 16:24:00,
2013-03-28 11:29:00,35.6,7.2,30.20,WNW,293,2.7,3.1,30,0.00,,CLR,0.00,VWS V14.01,2013-03-28 16:29:00,
2013-03-28 11:35:00,35.8,7.4,30.20,NW,308,3.1,3.1,30,0.00,,CLR,0.00,VWS V14.01,2013-03-28 16:35:00,
2013-03-28 11:40:00,35.8,7.4,30.20,NW,305,0.0,0.0,30,0.00,,CLR,0.00,VWS V14.01,2013-03-28 16:40:00,
2013-03-28 11:47:00,36.3,7.9,30.20,WNW,302,4.0,4.0,30,0.00,,CLR,0.00,VWS V14.01,2013-03-28 16:47:00,
2013-03-28 11:53:00,36.5,8.0,30.20,WNW,293,3.6,4.0,30,0.00,,CLR,0.00,VWS V14.01,2013-03-28 16:53:00,
2013-03-28 11:58:00,36.5,8.0,30.20,NW,305,3.6,3.6,30,0.00,,CLR,0.00,VWS V14.01,2013-03-28 16:58:00,
2013-03-28 12:04:00,36.7,8.2,30.20,WNW,298,3.1,3.6,30,0.00,,CLR,0.00,VWS V14.01,2013-03-28 17:04:00,
2013-03-28 12:09:00,36.9,8.3,30.20,WSW,253,3.1,4.0,30,0.00,,CLR,0.00,VWS V14.01,2013-03-28 17:09:00,
2013-03-28 12:15:00,37.0,8.5,30.20,WNW,299,2.7,4.0,30,0.00,,CLR,0.00,VWS V14.01,2013-03-28 17:15:00,
2013-03-28 12:20:00,37.4,8.8,30.20,WNW,291,3.6,3.6,30,0.00,,CLR,0.00,VWS V14.01,2013-03-28 17:20:00,
2013-03-28 12:27:00,37.4,8.1,30.20,WSW,257,3.1,3.6,29,0.00,,CLR,0.00,VWS V14.01,2013-03-28 17:27:00,
2013-03-28 12:32:00,37.9,8.5,30.20,NW,325,5.8,6.3,29,0.00,,CLR,0.00,VWS V14.01,2013-03-28 17:32:00,
2013-03-28 12:37:00,37.8,8.4,30.20,NW,320,4.5,6.3,29,0.00,,CLR,0.00,VWS V14.01,2013-03-28 17:37:00,
2013-03-28 12:42:00,37.6,8.2,30.20,NW,314,3.1,5.4,29,0.00,,CLR,0.00,VWS V14.01,2013-03-28 17:42:00,
2013-03-28 12:48:00,37.6,8.2,30.20,NW,307,3.6,4.0,29,0.00,,CLR,0.00,VWS V14.01,2013-03-28 17:48:00,
2013-03-28 12:53:00,37.6,8.2,30.20,NW,308,4.0,4.0,29,0.00,,CLR,0.00,VWS V14.01,2013-03-28 17:53:00,
2013-03-28 12:59:00,37.9,8.5,30.20,WNW,287,2.7,3.1,29,0.00,,CLR,0.00,VWS V14.01,2013-03-28 17:59:00,
2013-03-28 13:04:00,38.7,9.2,30.20,WNW,298,0.0,0.0,29,0.00,,CLR,0.00,VWS V14.01,2013-03-28 18:04:00,
2013-03-28 13:09:00,38.8,9.3,30.20,WNW,300,0.0,3.1,29,0.00,,CLR,0.00,VWS V14.01,2013-03-28 18:09:00,
2013-03-28 13:14:00,39.0,9.5,30.17,NW,315,3.1,3.1,29,0.00,,CLR,0.00,VWS V14.01,2013-03-28 18:14:00,
2013-03-28 13:20:00,39.0,9.5,30.17,NW,305,3.1,4.0,29,0.00,,CLR,0.00,VWS V14.01,2013-03-28 18:20:00,
2013-03-28 13:25:00,39.0,9.5,30.17,NW,321,4.9,4.9,29,0.00,,CLR,0.00,VWS V14.01,2013-03-28 18:25:00,
2013-03-28 13:31:00,39.2,8.9,30.17,NW,324,2.7,3.6,28,0.00,,CLR,0.00,VWS V14.01,2013-03-28 18:31:00,
2013-03-28 13:36:00,39.6,9.2,30.17,NW,307,0.0,2.7,28,0.00,,CLR,0.00,VWS V14.01,2013-03-28 18:36:00,
2013-03-28 13:42:00,40.1,8.0,30.17,WSW,256,0.0,2.7,26,0.00,,CLR,0.00,VWS V14.01,2013-03-28 18:42:00,
2013-03-28 13:47:00,41.0,10.4,30.17,West,262,6.3,7.2,28,0.00,,CLR,0.00,VWS V14.01,2013-03-28 18:47:00,
2013-03-28 13:52:00,41.0,8.8,30.17,SW,218,4.0,4.9,26,0.00,,CLR,0.00,VWS V14.01,2013-03-28 18:52:00,
2013-03-28 13:58:00,41.5,9.2,30.17,SW,226,3.1,4.0,26,0.00,,CLR,0.00,VWS V14.01,2013-03-28 18:58:00,
2013-03-28 14:03:00,41.9,9.5,30.17,SSW,213,3.1,4.5,26,0.00,,CLR,0.00,VWS V14.01,2013-03-28 19:03:00,
2013-03-28 14:09:00,42.4,10.0,30.17,SW,220,6.3,6.3,26,0.00,,CLR,0.00,VWS V14.01,2013-03-28 19:09:00,
2013-03-28 14:14:00,42.4,10.0,30.17,SSE,158,0.0,4.0,26,0.00,,CLR,0.00,VWS V14.01,2013-03-28 19:14:00,
2013-03-28 14:20:00,42.8,9.4,30.17,SSW,194,3.6,5.4,25,0.00,,CLR,0.00,VWS V14.01,2013-03-28 19:20:00,
2013-03-28 14:25:00,42.6,10.1,30.17,SSE,168,4.0,4.0,26,0.00,,CLR,0.00,VWS V14.01,2013-03-28 19:25:00,
2013-03-28 14:31:00,43.2,9.7,30.17,South,191,2.2,4.0,25,0.00,,CLR,0.00,VWS V14.01,2013-03-28 19:31:00,
2013-03-28 14:37:00,44.1,10.5,30.17,SW,221,6.3,6.3,25,0.00,,CLR,0.00,VWS V14.01,2013-03-28 19:37:00,
2013-03-28 14:42:00,44.1,10.5,30.17,South,176,4.0,4.0,25,0.00,,CLR,0.00,VWS V14.01,2013-03-28 19:42:00,
2013-03-28 14:48:00,43.5,10.0,30.17,SSE,166,4.0,4.9,25,0.00,,CLR,0.00,VWS V14.01,2013-03-28 19:48:00,
2013-03-28 14:53:00,43.3,9.9,30.17,South,170,4.9,5.4,25,0.00,,CLR,0.00,VWS V14.01,2013-03-28 19:53:00,
2013-03-28 14:59:00,43.7,10.2,30.17,SW,230,4.0,4.0,25,0.00,,CLR,0.00,VWS V14.01,2013-03-28 19:59:00,
2013-03-28 15:04:00,44.1,10.5,30.17,WSW,238,3.1,4.0,25,0.00,,CLR,0.00,VWS V14.01,2013-03-28 20:04:00,
2013-03-28 15:09:00,44.1,10.5,30.17,South,181,3.6,5.4,25,0.00,,CLR,0.00,VWS V14.01,2013-03-28 20:09:00,
2013-03-28 15:15:00,44.1,10.5,30.17,SSW,198,4.9,5.8,25,0.00,,CLR,0.00,VWS V14.01,2013-03-28 20:15:00,
2013-03-28 15:20:00,44.1,10.5,30.17,SSW,205,3.1,4.9,25,0.00,,CLR,0.00,VWS V14.01,2013-03-28 20:20:00,
2013-03-28 15:26:00,44.1,10.5,30.17,SSW,211,3.6,5.8,25,0.00,,CLR,0.00,VWS V14.01,2013-03-28 20:26:00,
2013-03-28 15:32:00,44.8,11.1,30.17,South,183,4.0,5.4,25,0.00,,CLR,0.00,VWS V14.01,2013-03-28 20:32:00,
2013-03-28 15:37:00,44.8,8.3,30.17,South,175,4.0,4.9,22,0.00,,CLR,0.00,VWS V14.01,2013-03-28 20:37:00,
2013-03-28 15:42:00,45.0,8.4,30.17,SSW,193,4.9,5.8,22,0.00,,CLR,0.00,VWS V14.01,2013-03-28 20:42:00,
2013-03-28 15:47:00,44.8,11.1,30.14,SSW,200,4.9,4.9,25,0.00,,CLR,0.00,VWS V14.01,2013-03-28 20:47:00,
2013-03-28 15:53:00,44.8,8.3,30.14,SW,219,4.0,5.8,22,0.00,,CLR,0.00,VWS V14.01,2013-03-28 20:53:00,
2013-03-28 15:58:00,44.8,11.1,30.14,SSW,198,3.6,5.4,25,0.00,,CLR,0.00,VWS V14.01,2013-03-28 20:58:00,
2013-03-28 16:04:00,44.4,10.8,30.14,SSW,213,4.0,5.4,25,0.00,,CLR,0.00,VWS V14.01,2013-03-28 21:04:00,
2013-03-28 16:09:00,44.8,8.3,30.14,SW,216,6.3,6.3,22,0.00,,CLR,0.00,VWS V14.01,2013-03-28 21:09:00,
2013-03-28 16:14:00,44.8,8.3,30.14,SSW,212,3.6,4.0,22,0.00,,CLR,0.00,VWS V14.01,2013-03-28 21:14:00,
2013-03-28 16:19:00,44.6,8.1,30.14,South,189,4.9,5.4,22,0.00,,CLR,0.00,VWS V14.01,2013-03-28 21:19:00,
2013-03-28 16:24:00,44.4,8.9,30.14,SSE,164,5.8,5.8,23,0.00,,CLR,0.00,VWS V14.01,2013-03-28 21:24:00,
2013-03-28 16:30:00,44.8,11.1,30.14,SSW,197,2.7,2.7,25,0.00,,CLR,0.00,VWS V14.01,2013-03-28 21:30:00,
2013-03-28 16:36:00,45.5,8.9,30.14,South,180,4.5,4.5,22,0.00,,CLR,0.00,VWS V14.01,2013-03-28 21:36:00,
2013-03-28 16:42:00,45.3,8.7,30.14,SSW,202,3.1,5.4,22,0.00,,CLR,0.00,VWS V14.01,2013-03-28 21:42:00,
2013-03-28 16:47:00,45.1,8.6,30.14,South,182,3.6,5.4,22,0.00,,CLR,0.00,VWS V14.01,2013-03-28 21:47:00,
2013-03-28 16:52:00,45.3,8.7,30.14,SSW,193,3.6,4.0,22,0.00,,CLR,0.00,VWS V14.01,2013-03-28 21:52:00,
2013-03-28 16:58:00,45.1,11.4,30.14,SW,234,4.0,5.8,25,0.00,,CLR,0.00,VWS V14.01,2013-03-28 21:58:00,
2013-03-28 17:03:00,45.3,11.6,30.14,SSE,157,0.0,0.0,25,0.00,,CLR,0.00,VWS V14.01,2013-03-28 22:03:00,
2013-03-28 17:08:00,45.7,11.9,30.14,SSW,204,5.8,5.8,25,0.00,,CLR,0.00,VWS V14.01,2013-03-28 22:08:00,
2013-03-28 17:13:00,45.9,12.0,30.14,South,190,2.7,5.8,25,0.00,,CLR,0.00,VWS V14.01,2013-03-28 22:13:00,
2013-03-28 17:18:00,45.9,9.2,30.14,South,169,3.1,4.0,22,0.00,,CLR,0.00,VWS V14.01,2013-03-28 22:18:00,
2013-03-28 17:24:00,46.0,9.3,30.14,SSW,201,4.0,5.4,22,0.00,,CLR,0.00,VWS V14.01,2013-03-28 22:24:00,
2013-03-28 17:29:00,46.0,9.3,30.14,South,191,3.1,4.0,22,0.00,,CLR,0.00,VWS V14.01,2013-03-28 22:29:00,
2013-03-28 17:35:00,46.0,9.3,30.14,South,186,3.1,3.1,22,0.00,,CLR,0.00,VWS V14.01,2013-03-28 22:35:00,
2013-03-28 17:40:00,45.9,9.2,30.14,South,182,2.2,3.6,22,0.00,,CLR,0.00,VWS V14.01,2013-03-28 22:40:00,
2013-03-28 17:46:00,45.3,8.7,30.14,South,187,3.1,3.6,22,0.00,,CLR,0.00,VWS V14.01,2013-03-28 22:46:00,
2013-03-28 17:52:00,45.0,8.4,30.14,South,188,2.7,3.1,22,0.00,,CLR,0.00,VWS V14.01,2013-03-28 22:52:00,
2013-03-28 17:57:00,44.8,8.3,30.14,South,185,2.7,4.9,22,0.00,,CLR,0.00,VWS V14.01,2013-03-28 22:57:00,
2013-03-28 18:02:00,44.4,10.8,30.14,South,191,3.1,4.9,25,0.00,,CLR,0.00,VWS V14.01,2013-03-28 23:02:00,
2013-03-28 18:08:00,43.7,10.2,30.14,SSW,196,4.0,4.0,25,0.00,,CLR,0.00,VWS V14.01,2013-03-28 23:08:00,
2013-03-28 18:13:00,43.3,9.9,30.14,SSW,195,3.1,3.6,25,0.00,,CLR,0.00,VWS V14.01,2013-03-28 23:13:00,
2013-03-28 18:18:00,42.8,9.4,30.14,South,181,2.7,4.0,25,0.00,,CLR,0.00,VWS V14.01,2013-03-28 23:18:00,
2013-03-28 18:24:00,42.4,10.0,30.14,SSW,197,2.2,3.6,26,0.00,,CLR,0.00,VWS V14.01,2013-03-28 23:24:00,
2013-03-28 18:29:00,42.3,9.8,30.14,SSW,201,0.0,0.0,26,0.00,,CLR,0.00,VWS V14.01,2013-03-28 23:29:00,
2013-03-28 18:34:00,41.9,9.5,30.14,SSW,205,0.0,3.6,26,0.00,,CLR,0.00,VWS V14.01,2013-03-28 23:34:00,
2013-03-28 18:39:00,41.5,9.2,30.14,SSW,209,2.7,4.0,26,0.00,,CLR,0.00,VWS V14.01,2013-03-28 23:39:00,
2013-03-28 18:45:00,41.0,8.8,30.14,SSW,203,3.6,3.6,26,0.00,,CLR,0.00,VWS V14.01,2013-03-28 23:45:00,
2013-03-28 18:50:00,40.5,8.3,30.14,SW,214,2.7,4.5,26,0.00,,CLR,0.00,VWS V14.01,2013-03-28 23:50:00,
2013-03-28 18:56:00,39.9,7.8,30.14,SW,228,0.0,0.0,26,0.00,,CLR,0.00,VWS V14.01,2013-03-28 23:56:00,
2013-03-28 19:02:00,39.4,7.4,30.14,SSW,206,0.0,0.0,26,0.00,,CLR,0.00,VWS V14.01,2013-03-29 00:02:00,
2013-03-28 19:07:00,39.2,7.2,30.14,SW,234,3.1,3.6,26,0.00,,CLR,0.00,VWS V14.01,2013-03-29 00:07:00,
2013-03-28 19:13:00,38.7,9.2,30.14,SSW,210,3.1,4.0,29,0.00,,CLR,0.00,VWS V14.01,2013-03-29 00:13:00,
2013-03-28 19:18:00,38.3,8.8,30.14,SSW,206,0.0,0.0,29,0.00,,CLR,0.00,VWS V14.01,2013-03-29 00:18:00,
2013-03-28 19:23:00,38.1,8.7,30.14,SSW,206,0.0,0.0,29,0.00,,CLR,0.00,VWS V14.01,2013-03-29 00:23:00,
2013-03-28 19:28:00,37.8,8.4,30.14,SSW,208,0.0,0.0,29,0.00,,CLR,0.00,VWS V14.01,2013-03-29 00:28:00,
2013-03-28 19:34:00,37.4,8.1,30.14,SSW,194,0.0,0.0,29,0.00,,CLR,0.00,VWS V14.01,2013-03-29 00:34:00,
2013-03-28 19:39:00,37.2,8.6,30.14,SSW,195,0.0,0.0,30,0.00,,CLR,0.00,VWS V14.01,2013-03-29 00:39:00,
2013-03-28 19:44:00,37.0,8.5,30.14,SSW,195,0.0,0.0,30,0.00,,CLR,0.00,VWS V14.01,2013-03-29 00:44:00,
2013-03-28 19:49:00,36.9,8.3,30.14,SSW,196,3.6,3.6,30,0.00,,CLR,0.00,VWS V14.01,2013-03-29 00:49:00,
2013-03-28 19:54:00,36.7,8.2,30.14,South,189,3.6,3.6,30,0.00,,CLR,0.00,VWS V14.01,2013-03-29 00:54:00,
2013-03-28 19:59:00,36.3,7.9,30.11,SSW,197,0.0,3.6,30,0.00,,CLR,0.00,VWS V14.01,2013-03-29 00:59:00,
2013-03-28 20:04:00,36.1,7.7,30.11,SSW,203,0.0,0.0,30,0.00,,CLR,0.00,VWS V14.01,2013-03-29 01:04:00,
2013-03-28 20:10:00,35.8,7.4,30.11,South,189,3.1,3.1,30,0.00,,CLR,0.00,VWS V14.01,2013-03-29 01:10:00,
2013-03-28 20:15:00,35.8,7.4,30.14,SSW,192,3.1,3.6,30,0.00,,CLR,0.00,VWS V14.01,2013-03-29 01:15:00,
2013-03-28 20:20:00,35.8,7.4,30.14,SSW,198,4.0,4.0,30,0.00,,CLR,0.00,VWS V14.01,2013-03-29 01:20:00,
2013-03-28 20:25:00,35.8,7.4,30.14,South,185,3.6,3.6,30,0.00,,CLR,0.00,VWS V14.01,2013-03-29 01:25:00,
2013-03-28 20:31:00,35.8,7.4,30.14,SSW,195,0.0,0.0,30,0.00,,CLR,0.00,VWS V14.01,2013-03-29 01:31:00,
2013-03-28 20:37:00,35.8,7.4,30.14,SW,217,0.0,0.0,30,0.00,,CLR,0.00,VWS V14.01,2013-03-29 01:37:00,
2013-03-28 20:42:00,35.8,7.4,30.14,SW,216,0.0,0.0,30,0.00,,CLR,0.00,VWS V14.01,2013-03-29 01:42:00,
2013-03-28 20:48:00,35.6,7.2,30.17,SSW,200,2.2,3.6,30,0.00,,CLR,0.00,VWS V14.01,2013-03-29 01:48:00,
2013-03-28 20:53:00,35.4,7.1,30.17,SSW,201,0.0,0.0,30,0.00,,CLR,0.00,VWS V14.01,2013-03-29 01:53:00,
2013-03-28 20:59:00,35.2,6.9,30.17,SSW,200,0.0,0.0,30,0.00,,CLR,0.00,VWS V14.01,2013-03-29 01:59:00,
2013-03-28 21:04:00,34.9,6.6,30.17,SSW,200,0.0,0.0,30,0.00,,CLR,0.00,VWS V14.01,2013-03-29 02:04:00,
2013-03-28 21:10:00,34.3,6.1,30.17,SSW,204,0.0,0.0,30,0.00,,CLR,0.00,VWS V14.01,2013-03-29 02:10:00,
2013-03-28 21:15:00,33.6,6.2,30.17,SSW,204,0.0,0.0,31,0.00,,CLR,0.00,VWS V14.01,2013-03-29 02:15:00,
2013-03-28 21:20:00,33.3,5.9,30.17,SSW,204,0.0,0.0,31,0.00,,CLR,0.00,VWS V14.01,2013-03-29 02:20:00,
2013-03-28 21:26:00,33.3,5.9,30.17,SSW,200,0.0,0.0,31,0.00,,CLR,0.00,VWS V14.01,2013-03-29 02:26:00,
2013-03-28 21:32:00,33.8,6.4,30.17,SSW,194,0.0,0.0,31,0.00,,CLR,0.00,VWS V14.01,2013-03-29 02:32:00,
2013-03-28 21:37:00,34.2,6.7,30.17,SSW,207,3.6,3.6,31,0.00,,CLR,0.00,VWS V14.01,2013-03-29 02:37:00,
2013-03-28 21:43:00,34.5,6.3,30.17,SSW,198,3.6,3.6,30,0.00,,CLR,0.00,VWS V14.01,2013-03-29 02:43:00,
2013-03-28 21:48:00,34.7,6.4,30.17,SSW,206,3.6,4.0,30,0.00,,CLR,0.00,VWS V14.01,2013-03-29 02:48:00,
2013-03-28 21:53:00,34.7,6.4,30.17,SSW,194,3.6,4.0,30,0.00,,CLR,0.00,VWS V14.01,2013-03-29 02:53:00,
2013-03-28 21:58:00,34.7,6.4,30.14,SSW,210,3.6,4.0,30,0.00,,CLR,0.00,VWS V14.01,2013-03-29 02:58:00,
2013-03-28 22:03:00,34.7,6.4,30.14,SSW,209,3.1,3.1,30,0.00,,CLR,0.00,VWS V14.01,2013-03-29 03:03:00,
2013-03-28 22:09:00,34.5,6.3,30.14,SSW,212,3.1,4.0,30,0.00,,CLR,0.00,VWS V14.01,2013-03-29 03:09:00,
2013-03-28 22:15:00,34.7,6.4,30.14,SW,226,0.0,0.0,30,0.00,,CLR,0.00,VWS V14.01,2013-03-29 03:15:00,
2013-03-28 22:20:00,34.9,6.6,30.14,SSW,197,2.7,3.6,30,0.00,,CLR,0.00,VWS V14.01,2013-03-29 03:20:00,
2013-03-28 22:26:00,34.9,6.6,30.14,SSW,205,2.7,3.6,30,0.00,,CLR,0.00,VWS V14.01,2013-03-29 03:26:00,
2013-03-28 22:31:00,34.9,6.6,30.11,SSW,213,3.6,3.6,30,0.00,,CLR,0.00,VWS V14.01,2013-03-29 03:31:00,
2013-03-28 22:37:00,34.9,6.6,30.11,SSW,193,3.1,4.0,30,0.00,,CLR,0.00,VWS V14.01,2013-03-29 03:37:00,
2013-03-28 22:42:00,34.7,6.4,30.11,SSW,197,3.1,3.1,30,0.00,,CLR,0.00,VWS V14.01,2013-03-29 03:42:00,
2013-03-28 22:47:00,34.5,6.3,30.17,SW,216,4.0,4.0,30,0.00,,CLR,0.00,VWS V14.01,2013-03-29 03:47:00,
2013-03-28 22:53:00,34.3,6.1,30.17,SSW,200,0.0,3.1,30,0.00,,CLR,0.00,VWS V14.01,2013-03-29 03:53:00,
2013-03-28 22:58:00,34.2,6.0,30.17,SSW,204,3.6,3.6,30,0.00,,CLR,0.00,VWS V14.01,2013-03-29 03:58:00,
2013-03-28 23:00:00,34.2,6.0,30.17,SW,218,3.6,3.6,30,0.00,,CLR,0.00,VWS V14.01,2013-03-29 04:00:00,
2013-03-28 23:02:00,34.2,6.0,30.17,SSW,210,3.1,3.1,30,0.00,,CLR,0.00,VWS V14.01,2013-03-29 04:02:00,
2013-03-28 23:03:00,34.2,6.0,30.17,SSW,207,3.6,4.9,30,0.00,,CLR,0.00,VWS V14.01,2013-03-29 04:03:00,
2013-03-28 23:07:00,34.0,5.8,30.17,SSW,213,0.0,0.0,30,0.00,,CLR,0.00,VWS V14.01,2013-03-29 04:07:00,
2013-03-28 23:12:00,33.8,5.7,30.17,SSW,210,0.0,0.0,30,0.00,,CLR,0.00,VWS V14.01,2013-03-29 04:12:00,
2013-03-28 23:18:00,33.4,6.1,30.17,South,191,0.0,0.0,31,0.00,,CLR,0.00,VWS V14.01,2013-03-29 04:18:00,
2013-03-28 23:23:00,33.1,5.8,30.17,SSW,198,0.0,2.7,31,0.00,,CLR,0.00,VWS V14.01,2013-03-29 04:23:00,
2013-03-28 23:29:00,32.9,5.6,30.14,SSW,194,0.0,0.0,31,0.00,,CLR,0.00,VWS V14.01,2013-03-29 04:29:00,
2013-03-28 23:34:00,32.7,5.4,30.14,SSW,205,2.2,2.7,31,0.00,,CLR,0.00,VWS V14.01,2013-03-29 04:34:00,
2013-03-28 23:39:00,32.5,5.3,30.14,SSW,205,0.0,0.0,31,0.00,,CLR,0.00,VWS V14.01,2013-03-29 04:39:00,
2013-03-28 23:44:00,32.2,5.0,30.14,SSW,205,0.0,0.0,31,0.00,,CLR,0.00,VWS V14.01,2013-03-29 04:44:00,
2013-03-28 23:50:00,32.0,4.8,30.14,SSW,205,0.0,0.0,31,0.00,,CLR,0.00,VWS V14.01,2013-03-29 04:50:00,
2013-03-28 23:55:00,31.6,4.5,30.14,SSW,205,0.0,0.0,31,0.00,,CLR,0.00,VWS V14.01,2013-03-29 04:55:00,